Time;durP1;ratioP1;P1;durP2;ratioP2;P2;SDS_P1;SDS_P2;PMS_P1;PMS_P2;Temp;Humidity;BMP_temperature;BMP_pressure;BME280_temperature;BME280_humidity;BME280_pressure;Samples;Min_cycle;Max_cycle;Signal;HPM_P1;HPM_P2
2021/08/23 00:00:18;;;;;;;0.20;0.20;;;13.70;99.90;;;;;;5055597;22;20431;-96
2021/08/23 00:02:53;;;;;;;0.30;0.30;;;13.70;99.90;;;;;;5024157;23;20430;-95
2021/08/23 00:05:20;;;;;;;0.20;0.20;;;13.70;99.90;;;;;;5023769;23;20527;-96
2021/08/23 00:08:04;;;;;;;0.32;0.32;;;13.70;99.90;;;;;;5047026;23;20500;-96
2021/08/23 00:13:49;;;;;;;0.43;0.43;;;13.70;99.90;;;;;;4966082;28;20512;-95
2021/08/23 00:16:16;;;;;;;0.50;0.50;;;13.70;99.90;;;;;;4964397;28;20420;-96
2021/08/23 00:18:47;;;;;;;0.50;0.50;;;13.70;99.90;;;;;;5030317;23;20457;-96
2021/08/23 00:24:06;;;;;;;0.25;0.25;;;13.60;99.90;;;;;;5025956;28;20433;-95
2021/08/23 00:29:05;;;;;;;0.40;0.40;;;13.40;99.90;;;;;;5047040;23;20415;-96
2021/08/23 00:31:45;;;;;;;0.10;0.10;;;13.40;99.90;;;;;;5064234;23;20623;-95
2021/08/23 00:34:13;;;;;;;0.10;0.10;;;13.40;99.90;;;;;;5043375;28;20427;-95
2021/08/23 00:36:41;;;;;;;1.25;0.45;;;13.30;99.90;;;;;;5041676;28;20466;-96
2021/08/23 00:39:10;;;;;;;0.30;0.30;;;13.30;99.90;;;;;;5055266;28;20466;-94
2021/08/23 00:41:38;;;;;;;0.25;0.25;;;13.30;99.90;;;;;;5045258;28;20451;-95
2021/08/23 00:44:07;;;;;;;0.40;0.40;;;13.30;99.90;;;;;;5044578;28;20403;-95
2021/08/23 00:46:35;;;;;;;0.20;0.20;;;13.30;99.90;;;;;;5043234;28;20447;-95
2021/08/23 00:49:27;;;;;;;0.40;0.40;;;13.30;99.90;;;;;;5042852;28;20415;-95
2021/08/23 00:52:07;;;;;;;0.10;0.10;;;13.20;99.90;;;;;;5046867;28;20411;-95
2021/08/23 00:54:36;;;;;;;0.10;0.10;;;13.10;99.90;;;;;;5054603;23;20431;-94
2021/08/23 00:57:04;;;;;;;0.10;0.10;;;13.20;99.90;;;;;;5047451;28;20433;-95
2021/08/23 01:02:17;;;;;;;1.08;0.57;;;13.00;99.90;;;;;;5056053;23;20501;-95
2021/08/23 01:05:02;;;;;;;0.10;0.10;;;13.00;99.90;;;;;;5045642;28;20426;-96
2021/08/23 01:07:43;;;;;;;0.10;0.10;;;12.90;99.90;;;;;;5045799;28;20407;-96
2021/08/23 01:10:16;;;;;;;0.17;0.17;;;12.80;99.90;;;;;;5056418;23;20484;-95
2021/08/23 01:12:44;;;;;;;0.10;0.10;;;12.70;99.90;;;;;;5045693;28;20518;-96
2021/08/23 01:15:11;;;;;;;2.60;0.80;;;12.60;99.90;;;;;;5046319;23;20415;-95
2021/08/23 01:17:39;;;;;;;1.92;0.43;;;12.60;99.90;;;;;;5028050;28;20420;-95
2021/08/23 01:20:09;;;;;;;0.20;0.20;;;12.50;99.90;;;;;;5025704;28;20938;-95
2021/08/23 01:22:57;;;;;;;0.10;0.10;;;12.40;99.90;;;;;;5010764;28;20827;-94
2021/08/23 01:25:29;;;;;;;0.10;0.10;;;12.30;99.90;;;;;;5028256;28;20428;-95
2021/08/23 01:28:01;;;;;;;0.32;0.25;;;12.30;99.90;;;;;;5026721;28;20566;-95
2021/08/23 01:30:45;;;;;;;0.20;0.20;;;12.20;99.90;;;;;;5027817;28;20423;-95
2021/08/23 01:33:15;;;;;;;0.70;0.40;;;12.20;99.90;;;;;;5029287;28;20409;-95
2021/08/23 01:35:43;;;;;;;0.20;0.20;;;12.20;99.90;;;;;;5024521;28;20507;-94
2021/08/23 01:38:16;;;;;;;0.80;0.60;;;12.10;99.90;;;;;;5027628;28;20421;-94
2021/08/23 01:41:06;;;;;;;0.10;0.10;;;12.10;99.90;;;;;;5035542;23;20443;-94
2021/08/23 01:43:51;;;;;;;0.10;0.10;;;12.00;99.90;;;;;;5033638;23;20440;-94
2021/08/23 01:46:18;;;;;;;0.40;0.20;;;12.10;99.90;;;;;;5025706;28;20416;-95
2021/08/23 01:48:46;;;;;;;0.20;0.20;;;12.10;99.90;;;;;;5027765;28;20435;-95
2021/08/23 01:51:22;;;;;;;0.10;0.10;;;12.00;99.90;;;;;;4970831;23;2091734;-95
2021/08/23 01:53:53;;;;;;;0.30;0.30;;;11.90;99.90;;;;;;5033874;23;21001;-95
2021/08/23 01:56:51;;;;;;;0.47;0.25;;;11.90;99.90;;;;;;5024702;28;20420;-94
2021/08/23 01:59:22;;;;;;;0.15;0.15;;;11.90;99.90;;;;;;5009730;28;20508;-95
2021/08/23 02:01:58;;;;;;;0.10;0.10;;;11.90;99.90;;;;;;5011268;28;20531;-95
2021/08/23 02:04:32;;;;;;;0.10;0.10;;;11.70;99.90;;;;;;5008613;28;20625;-94
2021/08/23 02:07:04;;;;;;;0.10;0.10;;;11.70;99.90;;;;;;5009860;28;20401;-96
2021/08/23 02:09:32;;;;;;;0.20;0.20;;;11.70;99.90;;;;;;5011737;28;20441;-95
2021/08/23 02:12:01;;;;;;;0.30;0.30;;;11.70;99.90;;;;;;5008409;28;20439;-96
2021/08/23 02:14:28;;;;;;;0.40;0.40;;;11.70;99.90;;;;;;5009172;28;20415;-96
2021/08/23 02:17:09;;;;;;;7.22;0.85;;;11.60;99.90;;;;;;5010262;28;20423;-96
2021/08/23 02:19:45;;;;;;;0.20;0.20;;;11.60;99.90;;;;;;5014849;28;20472;-96
2021/08/23 02:25:22;;;;;;;0.10;0.10;;;11.60;99.90;;;;;;5010066;23;20446;-96
2021/08/23 02:28:08;;;;;;;0.20;0.20;;;11.60;99.90;;;;;;4992543;28;20421;-95
2021/08/23 02:30:38;;;;;;;0.90;0.60;;;11.60;99.90;;;;;;5007514;23;20495;-95
2021/08/23 02:33:05;;;;;;;0.20;0.20;;;11.50;99.90;;;;;;5022294;28;20425;-93
2021/08/23 02:35:35;;;;;;;0.10;0.10;;;11.50;99.90;;;;;;5008855;28;20916;-94
2021/08/23 02:38:03;;;;;;;0.10;0.10;;;11.50;99.90;;;;;;5031638;28;20903;-95
2021/08/23 02:40:46;;;;;;;0.20;0.20;;;11.50;99.90;;;;;;5024640;28;20424;-96
2021/08/23 02:43:13;;;;;;;0.25;0.25;;;11.50;99.90;;;;;;5025535;28;20436;-94
2021/08/23 02:45:46;;;;;;;0.10;0.10;;;11.50;99.90;;;;;;5026238;28;20491;-96
2021/08/23 02:48:16;;;;;;;0.40;0.40;;;11.50;99.90;;;;;;5009049;28;20443;-94
2021/08/23 02:50:51;;;;;;;6.90;1.30;;;11.50;99.90;;;;;;5007249;28;20425;-95
2021/08/23 02:53:25;;;;;;;0.20;0.20;;;11.50;99.90;;;;;;5008451;28;20424;-96
2021/08/23 02:55:54;;;;;;;0.30;0.30;;;11.50;99.90;;;;;;5023657;28;20452;-94
2021/08/23 02:58:25;;;;;;;0.10;0.10;;;11.40;99.90;;;;;;5026367;28;20407;-95
2021/08/23 03:00:52;;;;;;;0.10;0.10;;;11.40;99.90;;;;;;5024139;28;20411;-94
2021/08/23 03:03:38;;;;;;;0.60;0.50;;;11.40;99.90;;;;;;5025482;28;20421;-95
2021/08/23 03:06:08;;;;;;;1.50;0.90;;;11.40;99.90;;;;;;5026136;28;20401;-95
2021/08/23 03:08:36;;;;;;;0.20;0.20;;;11.30;99.90;;;;;;5023409;28;20432;-96
2021/08/23 03:11:11;;;;;;;0.10;0.10;;;11.40;99.90;;;;;;5028651;28;20441;-94
2021/08/23 03:13:41;;;;;;;0.10;0.10;;;11.40;99.90;;;;;;5023362;28;20429;-95
2021/08/23 03:16:24;;;;;;;0.20;0.20;;;11.40;99.90;;;;;;5013075;23;20523;-96
2021/08/23 03:18:51;;;;;;;0.30;0.30;;;11.40;99.90;;;;;;4983572;28;20427;-94
2021/08/23 03:21:19;;;;;;;3.60;0.50;;;11.30;99.90;;;;;;4984168;28;20419;-95
2021/08/23 03:23:46;;;;;;;0.83;0.37;;;11.30;99.90;;;;;;4986863;28;20404;-94
2021/08/23 03:26:16;;;;;;;0.33;0.33;;;11.30;99.90;;;;;;4985176;28;20428;-95
2021/08/23 03:28:44;;;;;;;0.10;0.10;;;11.30;99.90;;;;;;4983066;28;20436;-94
2021/08/23 03:31:11;;;;;;;0.30;0.30;;;11.20;99.90;;;;;;5024742;23;20461;-95
2021/08/23 03:33:39;;;;;;;0.40;0.40;;;11.20;99.90;;;;;;5024901;28;20506;-95
2021/08/23 03:36:07;;;;;;;0.28;0.28;;;11.10;99.90;;;;;;5025421;28;20427;-95
2021/08/23 03:38:36;;;;;;;1.50;0.50;;;11.10;99.90;;;;;;5025740;28;20427;-94
2021/08/23 03:41:03;;;;;;;1.00;0.40;;;11.00;99.90;;;;;;5029006;28;20406;-96
2021/08/23 03:43:30;;;;;;;0.10;0.10;;;11.00;99.90;;;;;;5026066;28;20449;-95
2021/08/23 03:46:05;;;;;;;0.17;0.17;;;11.00;99.90;;;;;;5026299;28;20446;-94
2021/08/23 03:48:32;;;;;;;0.80;0.60;;;11.00;99.90;;;;;;5012829;28;20407;-95
2021/08/23 03:50:59;;;;;;;0.20;0.15;;;10.90;99.90;;;;;;5025174;28;20427;-96
2021/08/23 03:53:27;;;;;;;0.20;0.20;;;10.90;99.90;;;;;;5026275;28;20740;-95
2021/08/23 03:56:23;;;;;;;0.10;0.10;;;10.90;99.90;;;;;;5028365;28;20518;-94
2021/08/23 03:58:50;;;;;;;1.10;0.80;;;10.90;99.90;;;;;;4967924;28;20873;-96
2021/08/23 04:01:21;;;;;;;0.30;0.30;;;11.00;99.90;;;;;;5016781;23;20425;-94
2021/08/23 04:13:12;;;;;;;0.80;0.40;;;11.10;99.90;;;;;;5033935;23;20418;-95
2021/08/23 04:19:32;;;;;;;0.70;0.40;;;11.10;99.90;;;;;;5030704;23;20454;-96
2021/08/23 04:22:11;;;;;;;0.32;0.32;;;11.10;99.90;;;;;;5026826;28;20506;-96
2021/08/23 04:24:59;;;;;;;0.10;0.10;;;11.10;99.90;;;;;;5032911;22;20431;-96
2021/08/23 04:27:29;;;;;;;0.50;0.50;;;11.10;99.90;;;;;;5182091;22;21517;-95
2021/08/23 04:30:54;;;;;;;;;;;;;;;;;;;;;
2021/08/23 04:36:55;;;;;;;0.40;0.40;;;11.20;99.90;;;;;;5248651;22;20438;-96
2021/08/23 04:39:45;;;;;;;0.20;0.20;;;11.20;99.90;;;;;;5128762;23;20474;-96
2021/08/23 04:42:28;;;;;;;0.30;0.30;;;11.20;99.90;;;;;;5032943;23;20412;-96
2021/08/23 04:45:25;;;;;;;0.20;0.20;;;11.30;99.90;;;;;;5037241;23;20432;-96
2021/08/23 04:48:01;;;;;;;0.20;0.20;;;11.30;99.90;;;;;;5028533;28;20421;-96
2021/08/23 04:51:24;;;;;;;0.20;0.20;;;11.30;99.90;;;;;;5029354;28;20413;-96
2021/08/23 04:54:42;;;;;;;0.35;0.35;;;11.30;99.90;;;;;;5030143;28;20424;-96
2021/08/23 04:57:34;;;;;;;3.50;0.63;;;11.30;99.90;;;;;;4994091;22;20429;-95
2021/08/23 05:00:22;;;;;;;1.40;0.55;;;11.30;99.90;;;;;;5029184;23;20434;-96
2021/08/23 05:02:56;;;;;;;0.10;0.10;;;11.30;99.90;;;;;;5032975;28;20410;-96
2021/08/23 05:05:35;;;;;;;0.20;0.20;;;11.30;99.90;;;;;;5017939;23;20426;-96
2021/08/23 05:08:11;;;;;;;0.50;0.40;;;11.30;99.90;;;;;;5041808;22;20447;-96
2021/08/23 05:10:50;;;;;;;0.30;0.20;;;11.30;99.90;;;;;;5011818;28;20439;-96
2021/08/23 05:13:17;;;;;;;0.50;0.50;;;11.30;99.90;;;;;;5011670;28;20415;-95
2021/08/23 05:15:50;;;;;;;0.85;0.60;;;11.30;99.90;;;;;;5011519;28;20791;-96
2021/08/23 05:18:22;;;;;;;2.60;0.40;;;11.30;99.90;;;;;;5029003;23;20438;-96
2021/08/23 05:21:02;;;;;;;1.35;0.55;;;11.40;99.90;;;;;;5032029;22;20477;-95
2021/08/23 05:23:33;;;;;;;0.50;0.50;;;11.30;99.90;;;;;;5075300;22;20449;-95
2021/08/23 05:26:00;;;;;;;0.30;0.30;;;11.30;99.90;;;;;;5037087;23;20447;-95
2021/08/23 05:28:32;;;;;;;0.25;0.25;;;11.50;99.90;;;;;;5028646;28;20451;-95
2021/08/23 05:31:11;;;;;;;0.30;0.30;;;11.50;99.90;;;;;;5035997;23;20427;-96
2021/08/23 05:33:39;;;;;;;0.20;0.20;;;11.50;99.90;;;;;;5037773;23;20755;-95
2021/08/23 05:36:09;;;;;;;0.30;0.30;;;11.60;99.90;;;;;;5028772;28;20423;-95
2021/08/23 05:38:42;;;;;;;0.20;0.20;;;11.50;99.90;;;;;;5027670;28;20517;-95
2021/08/23 05:41:09;;;;;;;0.30;0.30;;;11.50;99.90;;;;;;5029070;28;20909;-96
2021/08/23 05:43:36;;;;;;;0.80;0.40;;;11.50;99.90;;;;;;5038612;28;20446;-96
2021/08/23 05:46:47;;;;;;;0.10;0.10;;;11.50;99.90;;;;;;5048592;22;20451;-96
2021/08/23 05:52:04;;;;;;;0.32;0.32;;;11.50;99.90;;;;;;5182182;23;20423;-96
2021/08/23 05:54:39;;;;;;;0.20;0.20;;;11.50;99.90;;;;;;5033721;23;20451;-96
2021/08/23 05:57:17;;;;;;;0.70;0.50;;;11.50;99.90;;;;;;5028367;28;20411;-96
2021/08/23 05:59:44;;;;;;;0.13;0.13;;;11.50;99.90;;;;;;5010086;28;20924;-96
2021/08/23 06:02:14;;;;;;;0.10;0.10;;;11.50;99.90;;;;;;5040270;23;20421;-96
2021/08/23 06:04:57;;;;;;;0.10;0.10;;;11.60;99.90;;;;;;5037367;23;20408;-96
2021/08/23 06:07:24;;;;;;;0.20;0.20;;;11.60;99.90;;;;;;5024519;23;20510;-96
2021/08/23 06:12:46;;;;;;;0.20;0.20;;;11.50;99.90;;;;;;5069051;23;20496;-96
2021/08/23 06:15:31;;;;;;;0.10;0.10;;;11.60;99.90;;;;;;5037608;23;20408;-96
2021/08/23 06:27:39;;;;;;;0.38;0.38;;;11.70;99.90;;;;;;4976728;23;20439;31
2021/08/23 06:30:09;;;;;;;2.10;1.08;;;11.70;99.90;;;;;;5130135;22;20522;-95
2021/08/23 06:32:36;;;;;;;1.60;0.90;;;11.70;99.90;;;;;;5049962;28;20410;-96
2021/08/23 06:35:05;;;;;;;0.30;0.30;;;11.70;99.90;;;;;;5109762;23;20413;-94
2021/08/23 06:37:35;;;;;;;0.28;0.28;;;11.70;99.90;;;;;;5048641;23;20417;-96
2021/08/23 06:40:07;;;;;;;1.40;0.60;;;11.80;99.90;;;;;;5021071;23;20428;-96
2021/08/23 06:42:50;;;;;;;0.47;0.47;;;11.80;99.90;;;;;;5026991;22;20435;-94
2021/08/23 06:45:17;;;;;;;1.95;0.55;;;11.80;99.90;;;;;;5005744;23;20417;-95
2021/08/23 06:47:47;;;;;;;0.30;0.30;;;11.80;99.90;;;;;;5122893;23;20441;-95
2021/08/23 06:50:18;;;;;;;0.60;0.50;;;11.90;99.90;;;;;;5032111;23;20438;-94
2021/08/23 06:52:53;;;;;;;0.60;0.60;;;11.90;99.90;;;;;;5050765;23;20431;-95
2021/08/23 06:55:23;;;;;;;0.20;0.20;;;11.90;99.90;;;;;;5044730;28;20423;-96
2021/08/23 06:57:50;;;;;;;0.30;0.30;;;11.90;99.90;;;;;;5041315;28;20419;-95
2021/08/23 07:00:18;;;;;;;0.22;0.22;;;11.90;99.90;;;;;;5040591;28;20415;-94
2021/08/23 07:02:49;;;;;;;0.50;0.50;;;11.90;99.90;;;;;;5046392;28;20527;-96
2021/08/23 07:05:21;;;;;;;0.50;0.50;;;11.90;99.90;;;;;;5041166;28;20426;-96
2021/08/23 07:07:55;;;;;;;0.50;0.50;;;12.00;99.90;;;;;;5042545;28;20435;-94
2021/08/23 07:10:22;;;;;;;0.70;0.70;;;11.90;99.90;;;;;;5040978;28;20490;-96
2021/08/23 07:12:49;;;;;;;0.50;0.43;;;12.10;99.90;;;;;;5041567;28;20409;-93
2021/08/23 07:15:16;;;;;;;0.57;0.57;;;12.10;99.90;;;;;;5040240;28;20423;-95
2021/08/23 07:17:43;;;;;;;0.90;0.80;;;12.30;99.90;;;;;;5042534;28;20752;-94
2021/08/23 07:20:18;;;;;;;1.02;0.63;;;12.40;99.90;;;;;;5041063;28;20506;-95
2021/08/23 07:22:45;;;;;;;0.20;0.20;;;12.50;99.90;;;;;;5037773;28;20465;-94
2021/08/23 07:25:12;;;;;;;0.95;0.35;;;12.50;99.90;;;;;;5048879;28;20406;-94
2021/08/23 07:27:39;;;;;;;0.20;0.20;;;12.50;99.90;;;;;;5052151;28;20419;-94
2021/08/23 07:30:07;;;;;;;0.98;0.70;;;12.50;99.90;;;;;;5041577;28;20411;-94
2021/08/23 07:32:35;;;;;;;0.50;0.50;;;12.40;99.90;;;;;;5046090;28;20423;-95
2021/08/23 07:35:03;;;;;;;0.65;0.60;;;12.50;99.90;;;;;;5037625;28;20419;-93
2021/08/23 07:37:46;;;;;;;0.30;0.30;;;12.50;99.90;;;;;;5033113;23;20904;-95
2021/08/23 07:42:42;;;;;;;0.20;0.20;;;12.70;99.90;;;;;;5003080;28;20445;-96
2021/08/23 07:45:10;;;;;;;0.13;0.13;;;12.70;99.90;;;;;;4982394;28;20926;-96
2021/08/23 07:47:38;;;;;;;0.40;0.40;;;12.80;99.90;;;;;;4997517;28;20798;-94
2021/08/23 07:50:06;;;;;;;1.13;0.85;;;12.90;99.90;;;;;;4999250;28;20431;-93
2021/08/23 07:52:46;;;;;;;1.08;0.57;;;12.90;99.90;;;;;;5002076;28;20402;-94
2021/08/23 07:55:13;;;;;;;0.10;0.10;;;12.90;99.90;;;;;;4999912;28;20406;-94
2021/08/23 07:57:48;;;;;;;0.20;0.20;;;12.90;99.90;;;;;;5000258;28;20936;-93
2021/08/23 08:00:19;;;;;;;0.22;0.22;;;12.90;99.90;;;;;;4997966;28;20430;-95
2021/08/23 08:02:46;;;;;;;1.00;0.70;;;13.10;99.90;;;;;;5024152;23;20517;-95
2021/08/23 08:05:14;;;;;;;0.30;0.30;;;13.20;99.90;;;;;;5033937;23;20486;-95
2021/08/23 08:07:43;;;;;;;0.20;0.20;;;13.20;99.90;;;;;;5026325;23;20424;-95
2021/08/23 08:10:16;;;;;;;0.20;0.20;;;13.20;99.90;;;;;;5015050;23;20465;-95
2021/08/23 08:12:44;;;;;;;0.40;0.40;;;13.10;99.90;;;;;;5022829;28;20429;-96
2021/08/23 08:15:12;;;;;;;0.20;0.20;;;12.90;99.90;;;;;;5032685;23;20488;-96
2021/08/23 08:17:39;;;;;;;0.65;0.63;;;12.90;99.90;;;;;;5028715;28;20449;-94
2021/08/23 08:20:10;;;;;;;1.40;0.60;;;12.90;99.90;;;;;;5022978;28;20427;-95
2021/08/23 08:22:38;;;;;;;0.30;0.30;;;13.00;99.90;;;;;;5023995;28;20465;-95
2021/08/23 08:25:06;;;;;;;0.40;0.40;;;13.00;99.90;;;;;;5022978;28;20422;-93
2021/08/23 08:27:35;;;;;;;1.40;0.60;;;13.00;99.90;;;;;;5068595;23;20443;-95
2021/08/23 08:30:04;;;;;;;0.68;0.68;;;12.90;99.90;;;;;;5022930;28;20427;-95
2021/08/23 08:32:31;;;;;;;0.80;0.57;;;12.80;99.90;;;;;;5043766;28;20466;-93
2021/08/23 08:35:05;;;;;;;0.40;0.40;;;12.70;99.90;;;;;;5135217;23;20403;-97
2021/08/23 08:38:04;;;;;;;0.30;0.30;;;12.60;99.90;;;;;;5107638;23;20438;-96
2021/08/23 08:41:07;;;;;;;0.17;0.17;;;12.50;99.90;;;;;;5087027;22;20439;31
2021/08/23 08:43:47;;;;;;;0.20;0.20;;;12.40;99.90;;;;;;5034406;23;20523;-96
2021/08/23 08:46:14;;;;;;;0.30;0.30;;;12.30;99.90;;;;;;5027886;28;20415;-96
2021/08/23 08:48:43;;;;;;;0.47;0.47;;;12.40;99.90;;;;;;5026625;28;20426;-96
2021/08/23 08:51:18;;;;;;;0.17;0.17;;;12.40;99.90;;;;;;5025512;28;20442;-95
2021/08/23 08:53:45;;;;;;;0.50;0.50;;;12.40;99.90;;;;;;5024640;28;20423;-94
2021/08/23 08:56:12;;;;;;;0.30;0.30;;;12.50;99.90;;;;;;5034402;22;20431;-94
2021/08/23 08:58:39;;;;;;;0.17;0.17;;;12.60;99.90;;;;;;5023002;28;20975;-96
2021/08/23 09:01:06;;;;;;;0.10;0.10;;;13.00;99.90;;;;;;5022992;28;20401;-96
2021/08/23 09:03:34;;;;;;;0.40;0.40;;;13.30;99.90;;;;;;5021354;28;20433;-94
2021/08/23 09:06:06;;;;;;;0.30;0.30;;;13.30;99.90;;;;;;5020582;28;20427;-94
2021/08/23 09:08:40;;;;;;;0.20;0.20;;;13.20;99.90;;;;;;5036594;28;20507;-95
2021/08/23 09:11:16;;;;;;;2.00;0.70;;;13.20;99.90;;;;;;5026720;28;20408;-94
2021/08/23 09:14:04;;;;;;;0.20;0.20;;;13.20;99.90;;;;;;5028516;28;20440;-94
2021/08/23 09:16:34;;;;;;;1.90;0.80;;;13.60;99.90;;;;;;5022567;28;20441;-95
2021/08/23 09:19:06;;;;;;;0.50;0.45;;;14.00;99.90;;;;;;5025054;28;20523;-96
2021/08/23 09:21:39;;;;;;;0.30;0.30;;;14.10;99.90;;;;;;5024160;28;20481;-96
2021/08/23 09:24:21;;;;;;;0.20;0.20;;;13.90;99.90;;;;;;5024653;28;20520;-95
2021/08/23 09:26:49;;;;;;;0.40;0.40;;;13.80;99.90;;;;;;5024789;28;20405;-95
2021/08/23 09:29:16;;;;;;;0.10;0.10;;;13.80;99.90;;;;;;5025774;28;20423;-95
2021/08/23 09:31:44;;;;;;;0.10;0.10;;;13.90;99.90;;;;;;5025058;28;20408;-95
2021/08/23 09:34:14;;;;;;;0.55;0.55;;;13.80;99.90;;;;;;5025112;28;20908;-95
2021/08/23 09:36:49;;;;;;;0.40;0.40;;;13.90;99.90;;;;;;5024206;28;20409;-94
2021/08/23 09:39:26;;;;;;;0.28;0.28;;;13.80;99.90;;;;;;5032536;23;20421;-94
2021/08/23 09:42:06;;;;;;;0.20;0.20;;;13.80;99.90;;;;;;5035789;23;20414;-95
2021/08/23 09:44:53;;;;;;;0.40;0.30;;;13.90;99.90;;;;;;5012425;28;20445;-95
2021/08/23 09:47:29;;;;;;;0.40;0.40;;;13.80;99.90;;;;;;5023914;28;20515;-96
2021/08/23 09:50:01;;;;;;;0.30;0.30;;;13.70;99.90;;;;;;5026745;28;20433;-95
2021/08/23 09:52:38;;;;;;;0.32;0.32;;;13.50;99.90;;;;;;5025008;28;20427;-96
2021/08/23 09:55:12;;;;;;;0.73;0.70;;;13.40;99.90;;;;;;5029202;28;20477;-96
2021/08/23 09:57:43;;;;;;;0.80;0.63;;;13.40;99.90;;;;;;5025117;28;20424;-95
2021/08/23 10:00:12;;;;;;;0.40;0.40;;;13.50;99.90;;;;;;5024725;28;20424;-95
2021/08/23 10:02:46;;;;;;;2.90;0.57;;;13.60;99.90;;;;;;5026664;28;20989;-94
2021/08/23 10:05:20;;;;;;;0.20;0.20;;;13.80;99.90;;;;;;5024449;28;20476;-95
2021/08/23 10:07:58;;;;;;;0.80;0.80;;;14.00;99.90;;;;;;5034540;28;20472;-95
2021/08/23 10:10:25;;;;;;;0.70;0.32;;;14.10;99.90;;;;;;5023836;28;20467;-95
2021/08/23 10:12:52;;;;;;;0.20;0.20;;;14.20;99.90;;;;;;5026205;28;20509;-96
2021/08/23 10:15:20;;;;;;;0.20;0.20;;;14.30;99.90;;;;;;5025084;28;20408;-95
2021/08/23 10:17:50;;;;;;;0.70;0.50;;;14.30;99.90;;;;;;5023224;28;20444;-95
2021/08/23 10:20:18;;;;;;;0.40;0.40;;;14.60;99.90;;;;;;5031815;23;20428;-94
2021/08/23 10:22:49;;;;;;;0.10;0.10;;;14.90;99.90;;;;;;5023423;28;20725;-94
2021/08/23 10:25:23;;;;;;;2.35;0.75;;;15.10;99.90;;;;;;5030174;23;20903;-96
2021/08/23 10:28:35;;;;;;;2.30;0.32;;;15.40;99.90;;;;;;5021796;28;20421;-94
2021/08/23 10:31:06;;;;;;;2.40;0.60;;;15.40;99.90;;;;;;5049165;23;20428;-95
2021/08/23 10:33:40;;;;;;;0.28;0.28;;;15.10;99.90;;;;;;5043314;23;20435;-96
2021/08/23 10:36:08;;;;;;;0.10;0.10;;;14.80;99.90;;;;;;5024738;28;20425;-94
2021/08/23 10:38:40;;;;;;;0.43;0.43;;;14.50;99.90;;;;;;5021633;28;20792;-94
2021/08/23 10:41:39;;;;;;;0.20;0.20;;;14.20;99.90;;;;;;5023416;28;20437;-96
2021/08/23 10:44:06;;;;;;;0.67;0.47;;;14.00;99.90;;;;;;5024295;28;20420;-94
2021/08/23 10:46:38;;;;;;;0.27;0.27;;;13.80;99.90;;;;;;5035836;23;20527;-95
2021/08/23 10:49:25;;;;;;;0.33;0.33;;;13.80;99.90;;;;;;5026607;28;20428;-96
2021/08/23 10:52:10;;;;;;;0.30;0.30;;;14.00;99.90;;;;;;5053183;23;20509;-96
2021/08/23 10:55:10;;;;;;;0.20;0.20;;;14.10;99.90;;;;;;5033959;28;20464;-94
2021/08/23 10:57:40;;;;;;;0.10;0.10;;;14.30;99.90;;;;;;1455062;23;20621;-94
2021/08/23 11:03:29;;;;;;;0.20;0.20;;;14.50;99.90;;;;;;5067922;22;20505;-95
2021/08/23 11:07:01;;;;;;;0.10;0.10;;;14.60;99.90;;;;;;5056609;22;20440;-95
2021/08/23 11:12:31;;;;;;;0.20;0.20;;;14.50;99.90;;;;;;5057758;23;20401;-95
2021/08/23 11:18:55;;;;;;;0.20;0.20;;;14.70;99.90;;;;;;5226577;22;20391;-94
2021/08/23 11:21:34;;;;;;;0.80;0.60;;;15.20;99.90;;;;;;5217656;23;20428;-94
2021/08/23 11:24:07;;;;;;;0.20;0.20;;;15.20;99.90;;;;;;5128555;23;20437;-95
2021/08/23 11:26:37;;;;;;;0.30;0.30;;;15.10;99.90;;;;;;5033545;23;20471;-94
2021/08/23 11:29:09;;;;;;;0.20;0.20;;;14.90;99.90;;;;;;5043396;28;20427;-95
2021/08/23 11:31:36;;;;;;;0.10;0.10;;;14.70;99.90;;;;;;5052393;23;20438;-95
2021/08/23 11:34:26;;;;;;;0.20;0.20;;;14.70;99.90;;;;;;5030706;28;20426;-94
2021/08/23 11:37:05;;;;;;;0.20;0.20;;;14.80;99.90;;;;;;5028408;28;20409;-95
2021/08/23 11:39:59;;;;;;;0.30;0.30;;;15.20;99.90;;;;;;5025888;28;20765;-94
2021/08/23 11:42:35;;;;;;;0.13;0.13;;;15.40;99.90;;;;;;5027104;23;20451;-95
2021/08/23 11:45:32;;;;;;;0.20;0.20;;;15.40;99.90;;;;;;5014052;28;20455;-94
2021/08/23 11:48:00;;;;;;;0.80;0.50;;;15.50;99.90;;;;;;5011589;28;20400;-95
2021/08/23 11:50:40;;;;;;;0.30;0.30;;;15.50;99.90;;;;;;5010643;28;20433;-94
2021/08/23 11:53:10;;;;;;;0.10;0.10;;;15.50;99.90;;;;;;5001758;28;20429;-95
2021/08/23 12:00:08;;;;;;;0.10;0.10;;;15.40;99.90;;;;;;4962228;28;20412;-96
2021/08/23 12:02:46;;;;;;;0.20;0.20;;;15.10;99.90;;;;;;5022958;23;20471;-95
2021/08/23 12:08:37;;;;;;;0.28;0.28;;;15.40;99.90;;;;;;5000405;28;20464;-96
2021/08/23 12:11:10;;;;;;;0.10;0.10;;;15.50;99.90;;;;;;5000901;23;20440;-96
2021/08/23 12:14:31;;;;;;;0.10;0.10;;;15.60;99.90;;;;;;5021834;28;20432;-96
2021/08/23 12:17:14;;;;;;;0.20;0.20;;;15.90;99.90;;;;;;5023203;28;20427;-95
2021/08/23 12:20:11;;;;;;;0.20;0.20;;;16.90;99.90;;;;;;5206128;23;20661;-95
2021/08/23 12:22:43;;;;;;;0.70;0.63;;;17.40;99.90;;;;;;5026719;28;20429;-96
2021/08/23 12:25:25;;;;;;;0.10;0.10;;;17.20;99.90;;;;;;5022434;28;20505;-95
2021/08/23 12:27:52;;;;;;;0.10;0.10;;;16.90;99.90;;;;;;5004364;28;20429;-96
2021/08/23 12:30:28;;;;;;;0.90;0.40;;;16.60;99.90;;;;;;5021718;28;20426;-94
2021/08/23 12:32:55;;;;;;;0.30;0.30;;;16.40;99.90;;;;;;5035168;28;20415;-95
2021/08/23 12:35:26;;;;;;;0.10;0.10;;;16.40;99.90;;;;;;5027734;28;20407;-94
2021/08/23 12:37:53;;;;;;;0.20;0.20;;;16.60;99.90;;;;;;5020665;28;20425;-95
2021/08/23 12:40:21;;;;;;;0.40;0.40;;;17.30;99.90;;;;;;5021497;28;20423;-95
2021/08/23 12:42:58;;;;;;;0.10;0.10;;;17.70;99.90;;;;;;5020061;28;20419;-94
2021/08/23 12:45:25;;;;;;;0.10;0.10;;;18.30;99.90;;;;;;5020521;28;20431;-95
2021/08/23 12:47:52;;;;;;;0.20;0.20;;;18.50;99.90;;;;;;5022255;23;20430;-93
2021/08/23 12:50:20;;;;;;;0.70;0.70;;;19.20;99.90;;;;;;5002954;28;20480;-95
2021/08/23 12:52:49;;;;;;;0.15;0.15;;;19.50;99.90;;;;;;5005165;28;20457;-96
2021/08/23 12:55:19;;;;;;;0.50;0.20;;;19.40;99.90;;;;;;5001982;28;20434;-93
2021/08/23 12:57:46;;;;;;;0.30;0.30;;;18.60;99.90;;;;;;5001665;28;20430;-96
2021/08/23 13:00:14;;;;;;;0.10;0.10;;;18.30;99.90;;;;;;5001056;28;20509;-94
2021/08/23 13:02:41;;;;;;;0.40;0.40;;;18.30;99.90;;;;;;5000373;28;20439;-94
2021/08/23 13:05:11;;;;;;;0.20;0.20;;;18.50;99.90;;;;;;5000366;28;20814;-95
2021/08/23 13:07:43;;;;;;;0.25;0.25;;;18.10;99.90;;;;;;5001021;28;20929;-95
2021/08/23 13:10:10;;;;;;;0.30;0.30;;;17.80;99.90;;;;;;5003723;28;20468;-94
2021/08/23 13:12:48;;;;;;;0.70;0.40;;;17.80;99.90;;;;;;5027635;23;20444;-95
2021/08/23 13:15:24;;;;;;;0.17;0.17;;;18.50;99.90;;;;;;5021124;28;20421;-96
2021/08/23 13:17:51;;;;;;;0.20;0.20;;;19.40;99.90;;;;;;5022032;28;20449;-95
2021/08/23 13:20:19;;;;;;;1.80;1.00;;;20.10;99.90;;;;;;5025415;28;20471;-94
2021/08/23 13:22:59;;;;;;;0.43;0.30;;;20.00;99.90;;;;;;5020963;28;20429;-94
2021/08/23 13:25:39;;;;;;;0.47;0.47;;;19.70;99.90;;;;;;5010927;28;20436;-96
2021/08/23 13:28:07;;;;;;;0.20;0.20;;;18.80;99.90;;;;;;5027406;28;20421;-96
2021/08/23 13:30:38;;;;;;;0.20;0.20;;;18.10;99.90;;;;;;5032365;28;20456;-96
2021/08/23 13:33:20;;;;;;;0.20;0.20;;;17.30;99.90;;;;;;5062157;23;20416;-95
2021/08/23 13:36:13;;;;;;;0.38;0.38;;;16.60;99.90;;;;;;5020559;28;20432;-96
2021/08/23 13:38:41;;;;;;;0.30;0.30;;;15.90;99.90;;;;;;5029562;28;20444;-96
2021/08/23 13:45:15;;;;;;;0.60;0.60;;;15.10;99.90;;;;;;5732717;22;20433;-96
2021/08/23 13:47:45;;;;;;;0.25;0.25;;;14.80;99.90;;;;;;5027531;28;20409;-96
2021/08/23 13:50:31;;;;;;;0.20;0.20;;;14.70;99.90;;;;;;5077015;23;20572;-96
2021/08/23 13:53:04;;;;;;;0.25;0.25;;;14.60;99.90;;;;;;5114046;22;20523;-96
2021/08/23 13:55:39;;;;;;;0.40;0.40;;;14.60;99.90;;;;;;5039310;22;20711;-96
2021/08/23 13:58:37;;;;;;;0.40;0.40;;;14.40;99.90;;;;;;5040713;23;20430;-96
2021/08/23 14:01:27;;;;;;;0.10;0.10;;;14.40;99.90;;;;;;5310438;23;20426;-96
2021/08/23 14:04:14;;;;;;;;;;;;;;;;;;;;;
2021/08/23 14:06:39;;;;;;;0.60;0.50;;;14.20;99.90;;;;;;5052115;22;20459;-96
2021/08/23 14:09:06;;;;;;;0.80;0.80;;;14.20;99.90;;;;;;5024065;23;20889;-96
2021/08/23 14:11:37;;;;;;;1.50;0.60;;;14.20;99.90;;;;;;5037301;23;20437;-95
2021/08/23 14:14:06;;;;;;;0.20;0.20;;;14.10;99.90;;;;;;4986763;28;20435;-95
2021/08/23 14:16:41;;;;;;;0.68;0.47;;;14.10;99.90;;;;;;4980601;28;20428;-96
2021/08/23 14:19:23;;;;;;;0.40;0.40;;;14.20;99.90;;;;;;4970154;28;20430;-95
2021/08/23 14:21:51;;;;;;;0.30;0.30;;;14.20;99.90;;;;;;4968976;28;20459;-95
2021/08/23 14:24:20;;;;;;;14.20;0.50;;;14.20;99.90;;;;;;4969811;28;20990;-94
2021/08/23 14:26:48;;;;;;;0.20;0.20;;;14.20;99.90;;;;;;4967410;28;20428;-96
2021/08/23 14:29:19;;;;;;;0.70;0.70;;;14.20;99.90;;;;;;4971149;28;20424;-96
2021/08/23 14:31:57;;;;;;;0.20;0.20;;;14.30;99.90;;;;;;4950903;29;20492;-96
2021/08/23 14:34:45;;;;;;;0.20;0.20;;;14.50;99.90;;;;;;4946849;29;20433;-96